sensor_id;sensor_type;location;lat;lon;timestamp;pressure;altitude;pressure_sealevel;temperature;humidity
76762;BME280;65705;51.032;13.790;2023-07-29T00:00:40;99731.03;;;21.32;73.15
76762;BME280;65705;51.032;13.790;2023-07-29T00:03:06;99733.13;;;21.30;73.74
76762;BME280;65705;51.032;13.790;2023-07-29T00:05:31;99737.19;;;21.33;73.71
76762;BME280;65705;51.032;13.790;2023-07-29T00:07:57;99727.78;;;21.30;73.58
76762;BME280;65705;51.032;13.790;2023-07-29T00:10:23;99728.50;;;21.26;73.66
76762;BME280;65705;51.032;13.790;2023-07-29T00:12:48;99727.69;;;21.25;73.23
76762;BME280;65705;51.032;13.790;2023-07-29T00:15:14;99734.31;;;21.23;73.68
76762;BME280;65705;51.032;13.790;2023-07-29T00:17:40;99727.50;;;21.15;74.43
76762;BME280;65705;51.032;13.790;2023-07-29T00:20:06;99723.34;;;21.08;74.23
76762;BME280;65705;51.032;13.790;2023-07-29T00:22:32;99716.94;;;21.09;74.06
76762;BME280;65705;51.032;13.790;2023-07-29T00:24:58;99725.03;;;21.14;74.10
76762;BME280;65705;51.032;13.790;2023-07-29T00:27:25;99721.84;;;21.12;74.71
76762;BME280;65705;51.032;13.790;2023-07-29T00:29:51;99717.41;;;21.06;74.66
76762;BME280;65705;51.032;13.790;2023-07-29T00:32:17;99720.09;;;21.06;74.94
76762;BME280;65705;51.032;13.790;2023-07-29T00:34:44;99716.84;;;21.04;74.81
76762;BME280;65705;51.032;13.790;2023-07-29T00:37:10;99720.56;;;21.03;75.06
76762;BME280;65705;51.032;13.790;2023-07-29T00:39:37;99723.91;;;20.98;75.05
76762;BME280;65705;51.032;13.790;2023-07-29T00:42:03;99719.63;;;20.97;74.80
76762;BME280;65705;51.032;13.790;2023-07-29T00:44:29;99714.66;;;21.01;75.20
76762;BME280;65705;51.032;13.790;2023-07-29T00:47:02;99718.94;;;21.02;75.10
76762;BME280;65705;51.032;13.790;2023-07-29T00:49:28;99715.91;;;20.98;75.38
76762;BME280;65705;51.032;13.790;2023-07-29T00:51:54;99715.91;;;20.98;75.60
76762;BME280;65705;51.032;13.790;2023-07-29T00:54:20;99709.56;;;20.99;75.11
76762;BME280;65705;51.032;13.790;2023-07-29T00:56:46;99715.69;;;21.00;75.76
76762;BME280;65705;51.032;13.790;2023-07-29T00:59:12;99707.44;;;21.01;75.74
76762;BME280;65705;51.032;13.790;2023-07-29T01:01:38;99715.22;;;20.91;75.76
76762;BME280;65705;51.032;13.790;2023-07-29T01:04:04;99717.31;;;20.89;76.06
76762;BME280;65705;51.032;13.790;2023-07-29T01:09:42;99705.59;;;20.90;75.63
76762;BME280;65705;51.032;13.790;2023-07-29T01:12:20;99712.56;;;20.91;75.44
76762;BME280;65705;51.032;13.790;2023-07-29T01:17:29;99704.78;;;20.89;76.14
76762;BME280;65705;51.032;13.790;2023-07-29T01:20:08;99702.69;;;20.91;75.92
76762;BME280;65705;51.032;13.790;2023-07-29T01:22:35;99696.53;;;20.91;75.76
76762;BME280;65705;51.032;13.790;2023-07-29T01:25:02;99705.47;;;20.85;75.94
76762;BME280;65705;51.032;13.790;2023-07-29T01:27:30;99703.28;;;20.82;74.91
76762;BME280;65705;51.032;13.790;2023-07-29T01:29:57;99703.28;;;20.82;75.67
76762;BME280;65705;51.032;13.790;2023-07-29T01:35:27;99691.13;;;20.74;74.73
76762;BME280;65705;51.032;13.790;2023-07-29T01:38:08;99690.44;;;20.79;74.34
76762;BME280;65705;51.032;13.790;2023-07-29T01:40:35;99686.13;;;20.78;74.93
76762;BME280;65705;51.032;13.790;2023-07-29T01:43:01;99690.44;;;20.79;74.96
76762;BME280;65705;51.032;13.790;2023-07-29T01:45:28;99687.75;;;20.79;75.19
76762;BME280;65705;51.032;13.790;2023-07-29T01:47:57;99692.50;;;20.77;74.99
76762;BME280;65705;51.032;13.790;2023-07-29T01:50:22;99684.84;;;20.80;75.17
76762;BME280;65705;51.032;13.790;2023-07-29T01:52:48;99694.69;;;20.80;75.10
76762;BME280;65705;51.032;13.790;2023-07-29T01:55:14;99690.66;;;20.77;75.67
76762;BME280;65705;51.032;13.790;2023-07-29T01:57:40;99697.25;;;20.75;75.96
76762;BME280;65705;51.032;13.790;2023-07-29T02:00:06;99696.22;;;20.76;75.56
76762;BME280;65705;51.032;13.790;2023-07-29T02:02:40;99694.94;;;20.67;75.88
76762;BME280;65705;51.032;13.790;2023-07-29T02:05:06;99687.91;;;20.61;75.83
76762;BME280;65705;51.032;13.790;2023-07-29T02:07:31;99690.44;;;20.44;76.18
76762;BME280;65705;51.032;13.790;2023-07-29T02:09:57;99693.94;;;20.33;77.46
76762;BME280;65705;51.032;13.790;2023-07-29T02:12:24;99701.34;;;20.31;77.51
76762;BME280;65705;51.032;13.790;2023-07-29T02:14:49;99699.16;;;20.28;77.71
76762;BME280;65705;51.032;13.790;2023-07-29T02:17:15;99702.03;;;20.27;78.12
76762;BME280;65705;51.032;13.790;2023-07-29T02:19:41;99702.16;;;20.20;78.45
76762;BME280;65705;51.032;13.790;2023-07-29T02:22:06;99707.94;;;20.17;78.59
76762;BME280;65705;51.032;13.790;2023-07-29T02:24:32;99693.78;;;20.17;78.71
76762;BME280;65705;51.032;13.790;2023-07-29T02:26:58;99690.94;;;20.18;78.64
76762;BME280;65705;51.032;13.790;2023-07-29T02:29:23;99687.44;;;20.18;78.73
76762;BME280;65705;51.032;13.790;2023-07-29T02:31:50;99698.41;;;20.10;78.97
76762;BME280;65705;51.032;13.790;2023-07-29T02:34:16;99694.72;;;20.11;79.24
76762;BME280;65705;51.032;13.790;2023-07-29T02:36:42;99695.63;;;20.16;78.54
76762;BME280;65705;51.032;13.790;2023-07-29T02:39:07;99694.94;;;20.09;78.72
76762;BME280;65705;51.032;13.790;2023-07-29T02:41:34;99704.91;;;20.14;78.63
76762;BME280;65705;51.032;13.790;2023-07-29T02:43:59;99711.16;;;20.08;79.28
76762;BME280;65705;51.032;13.790;2023-07-29T02:46:25;99703.50;;;20.00;79.46
76762;BME280;65705;51.032;13.790;2023-07-29T02:48:51;99704.66;;;20.04;79.35
76762;BME280;65705;51.032;13.790;2023-07-29T02:51:17;99711.59;;;20.05;79.36
76762;BME280;65705;51.032;13.790;2023-07-29T02:53:42;99721.66;;;20.03;79.56
76762;BME280;65705;51.032;13.790;2023-07-29T02:56:08;99716.56;;;20.01;79.69
76762;BME280;65705;51.032;13.790;2023-07-29T02:58:36;99722.72;;;20.02;79.46
76762;BME280;65705;51.032;13.790;2023-07-29T03:01:08;99720.06;;;20.13;78.78
76762;BME280;65705;51.032;13.790;2023-07-29T03:03:34;99724.59;;;20.13;78.90
76762;BME280;65705;51.032;13.790;2023-07-29T03:06:03;99727.72;;;20.10;79.01
76762;BME280;65705;51.032;13.790;2023-07-29T03:08:28;99721.81;;;20.08;79.00
76762;BME280;65705;51.032;13.790;2023-07-29T03:10:55;99730.72;;;20.02;79.24
76762;BME280;65705;51.032;13.790;2023-07-29T03:13:21;99731.19;;;19.99;79.55
76762;BME280;65705;51.032;13.790;2023-07-29T03:15:46;99721.56;;;19.98;79.42
76762;BME280;65705;51.032;13.790;2023-07-29T03:18:12;99730.47;;;20.03;79.51
76762;BME280;65705;51.032;13.790;2023-07-29T03:20:38;99728.75;;;20.09;79.42
76762;BME280;65705;51.032;13.790;2023-07-29T03:23:04;99730.53;;;20.15;79.07
76762;BME280;65705;51.032;13.790;2023-07-29T03:25:29;99728.28;;;20.12;79.25
76762;BME280;65705;51.032;13.790;2023-07-29T03:27:55;99736.81;;;20.20;78.84
76762;BME280;65705;51.032;13.790;2023-07-29T03:30:21;99737.25;;;20.17;79.05
76762;BME280;65705;51.032;13.790;2023-07-29T03:32:49;99734.34;;;20.19;79.24
76762;BME280;65705;51.032;13.790;2023-07-29T03:35:15;99722.53;;;20.15;79.58
76762;BME280;65705;51.032;13.790;2023-07-29T03:37:41;99725.19;;;20.15;79.40
76762;BME280;65705;51.032;13.790;2023-07-29T03:40:07;99724.94;;;20.16;79.27
76762;BME280;65705;51.032;13.790;2023-07-29T03:42:35;99724.84;;;20.11;78.78
76762;BME280;65705;51.032;13.790;2023-07-29T03:45:01;99718.69;;;20.11;78.70
76762;BME280;65705;51.032;13.790;2023-07-29T03:47:27;99718.22;;;20.02;78.61
76762;BME280;65705;51.032;13.790;2023-07-29T03:49:53;99709.16;;;20.03;78.67
76762;BME280;65705;51.032;13.790;2023-07-29T03:52:21;99706.50;;;20.03;78.60
76762;BME280;65705;51.032;13.790;2023-07-29T03:54:47;99707.22;;;20.10;78.64
76762;BME280;65705;51.032;13.790;2023-07-29T03:57:12;99706.53;;;20.15;78.30
76762;BME280;65705;51.032;13.790;2023-07-29T03:59:38;99714.22;;;20.23;78.13
76762;BME280;65705;51.032;13.790;2023-07-29T04:02:04;99713.53;;;20.27;77.69
76762;BME280;65705;51.032;13.790;2023-07-29T04:04:30;99722.06;;;20.29;77.36
76762;BME280;65705;51.032;13.790;2023-07-29T04:06:56;99709.13;;;20.33;77.35
76762;BME280;65705;51.032;13.790;2023-07-29T04:09:21;99708.91;;;20.34;77.73
76762;BME280;65705;51.032;13.790;2023-07-29T04:11:47;99707.59;;;20.37;77.61
76762;BME280;65705;51.032;13.790;2023-07-29T04:14:13;99710.28;;;20.37;77.45
76762;BME280;65705;51.032;13.790;2023-07-29T04:16:39;99703.56;;;20.34;77.40
76762;BME280;65705;51.032;13.790;2023-07-29T04:19:05;99707.25;;;20.33;77.29
76762;BME280;65705;51.032;13.790;2023-07-29T04:21:30;99710.28;;;20.37;77.40
76762;BME280;65705;51.032;13.790;2023-07-29T04:23:56;99719.44;;;20.41;77.30
76762;BME280;65705;51.032;13.790;2023-07-29T04:26:22;99721.88;;;20.42;77.05
76762;BME280;65705;51.032;13.790;2023-07-29T04:28:47;99718.63;;;20.52;76.74
76762;BME280;65705;51.032;13.790;2023-07-29T04:31:13;99717.34;;;20.54;76.34
76762;BME280;65705;51.032;13.790;2023-07-29T04:33:39;99716.06;;;20.57;76.41
76762;BME280;65705;51.032;13.790;2023-07-29T04:36:04;99723.03;;;20.58;76.54
76762;BME280;65705;51.032;13.790;2023-07-29T04:38:31;99719.78;;;20.56;76.68
76762;BME280;65705;51.032;13.790;2023-07-29T04:41:01;99715.59;;;20.60;76.62
76762;BME280;65705;51.032;13.790;2023-07-29T04:43:31;99721.97;;;20.59;76.45
76762;BME280;65705;51.032;13.790;2023-07-29T04:45:57;99714.31;;;20.62;76.53
76762;BME280;65705;51.032;13.790;2023-07-29T04:48:23;99724.19;;;20.62;76.59
76762;BME280;65705;51.032;13.790;2023-07-29T04:50:49;99719.66;;;20.62;76.88
76762;BME280;65705;51.032;13.790;2023-07-29T04:53:14;99716.28;;;20.67;76.58
76762;BME280;65705;51.032;13.790;2023-07-29T04:55:42;99712.09;;;20.71;76.78
76762;BME280;65705;51.032;13.790;2023-07-29T04:58:08;99716.63;;;20.70;76.59
76762;BME280;65705;51.032;13.790;2023-07-29T05:00:35;99718.13;;;20.78;76.71
76762;BME280;65705;51.032;13.790;2023-07-29T05:03:02;99711.28;;;20.82;76.60
76762;BME280;65705;51.032;13.790;2023-07-29T05:05:28;99714.41;;;20.90;76.39
76762;BME280;65705;51.032;13.790;2023-07-29T05:07:54;99715.91;;;20.98;75.77
76762;BME280;65705;51.032;13.790;2023-07-29T05:10:20;99711.16;;;21.00;75.94
76762;BME280;65705;51.032;13.790;2023-07-29T05:12:46;99706.66;;;21.01;76.19
76762;BME280;65705;51.032;13.790;2023-07-29T05:15:11;99707.00;;;21.04;75.83
76762;BME280;65705;51.032;13.790;2023-07-29T05:17:37;99710.56;;;21.10;75.78
76762;BME280;65705;51.032;13.790;2023-07-29T05:20:04;99714.72;;;21.17;75.56
76762;BME280;65705;51.032;13.790;2023-07-29T05:22:30;99712.38;;;21.21;75.84
76762;BME280;65705;51.032;13.790;2023-07-29T05:24:55;99713.06;;;21.28;74.96
76762;BME280;65705;51.032;13.790;2023-07-29T05:27:21;99708.63;;;21.33;74.50
76762;BME280;65705;51.032;13.790;2023-07-29T05:29:47;99708.25;;;21.41;74.21
76762;BME280;65705;51.032;13.790;2023-07-29T05:32:12;99709.25;;;21.52;73.36
76762;BME280;65705;51.032;13.790;2023-07-29T05:34:41;99704.56;;;21.59;73.16
76762;BME280;65705;51.032;13.790;2023-07-29T05:37:07;99698.59;;;21.68;73.02
76762;BME280;65705;51.032;13.790;2023-07-29T05:39:32;99699.00;;;21.77;72.47
76762;BME280;65705;51.032;13.790;2023-07-29T05:41:58;99689.25;;;21.82;71.45
76762;BME280;65705;51.032;13.790;2023-07-29T05:44:24;99684.31;;;21.91;71.35
76762;BME280;65705;51.032;13.790;2023-07-29T05:46:50;99684.41;;;21.96;71.11
76762;BME280;65705;51.032;13.790;2023-07-29T05:49:16;99691.19;;;22.04;71.15
76762;BME280;65705;51.032;13.790;2023-07-29T05:51:42;99694.78;;;22.09;70.95
76762;BME280;65705;51.032;13.790;2023-07-29T05:54:08;99693.31;;;22.18;70.63
76762;BME280;65705;51.032;13.790;2023-07-29T05:56:34;99688.03;;;22.23;70.10
76762;BME280;65705;51.032;13.790;2023-07-29T05:58:59;99684.66;;;22.28;70.11
76762;BME280;65705;51.032;13.790;2023-07-29T06:01:25;99670.53;;;22.32;69.92
76762;BME280;65705;51.032;13.790;2023-07-29T06:03:51;99668.16;;;22.36;69.59
76762;BME280;65705;51.032;13.790;2023-07-29T06:06:17;99666.88;;;22.38;69.66
76762;BME280;65705;51.032;13.790;2023-07-29T06:08:43;99674.25;;;22.48;69.97
76762;BME280;65705;51.032;13.790;2023-07-29T06:11:08;99678.69;;;22.59;69.25
76762;BME280;65705;51.032;13.790;2023-07-29T06:13:34;99673.28;;;22.75;69.28
76762;BME280;65705;51.032;13.790;2023-07-29T06:16:00;99669.44;;;22.88;67.75
76762;BME280;65705;51.032;13.790;2023-07-29T06:18:25;99664.28;;;23.03;65.48
76762;BME280;65705;51.032;13.790;2023-07-29T06:20:51;99660.59;;;23.09;65.08
76762;BME280;65705;51.032;13.790;2023-07-29T06:23:17;99668.50;;;23.21;64.36
76762;BME280;65705;51.032;13.790;2023-07-29T06:25:44;99671.28;;;23.31;63.34
76762;BME280;65705;51.032;13.790;2023-07-29T06:28:10;99674.41;;;23.44;62.38
76762;BME280;65705;51.032;13.790;2023-07-29T06:30:35;99673.44;;;23.55;62.35
76762;BME280;65705;51.032;13.790;2023-07-29T06:33:01;99675.66;;;23.63;60.97
76762;BME280;65705;51.032;13.790;2023-07-29T06:35:28;99672.72;;;23.65;60.25
76762;BME280;65705;51.032;13.790;2023-07-29T06:37:54;99676.00;;;23.72;60.48
76762;BME280;65705;51.032;13.790;2023-07-29T06:40:20;99676.28;;;23.75;59.92
76762;BME280;65705;51.032;13.790;2023-07-29T06:42:45;99678.22;;;23.80;59.63
76762;BME280;65705;51.032;13.790;2023-07-29T06:45:11;99681.22;;;23.88;58.80
76762;BME280;65705;51.032;13.790;2023-07-29T06:47:37;99678.56;;;23.88;59.56
76762;BME280;65705;51.032;13.790;2023-07-29T06:50:03;99684.22;;;23.92;59.08
76762;BME280;65705;51.032;13.790;2023-07-29T06:52:29;99690.94;;;23.94;59.61
76762;BME280;65705;51.032;13.790;2023-07-29T06:54:55;99680.22;;;23.94;59.45
76762;BME280;65705;51.032;13.790;2023-07-29T06:57:20;99684.00;;;23.98;59.29
76762;BME280;65705;51.032;13.790;2023-07-29T06:59:46;99681.09;;;24.00;59.11
76762;BME280;65705;51.032;13.790;2023-07-29T07:02:12;99677.66;;;24.05;59.06
76762;BME280;65705;51.032;13.790;2023-07-29T07:04:37;99685.16;;;24.08;59.28
76762;BME280;65705;51.032;13.790;2023-07-29T07:07:03;99682.47;;;24.08;58.66
76762;BME280;65705;51.032;13.790;2023-07-29T07:09:29;99679.88;;;24.13;58.52
76762;BME280;65705;51.032;13.790;2023-07-29T07:11:55;99676.91;;;24.14;58.52
76762;BME280;65705;51.032;13.790;2023-07-29T07:14:20;99677.75;;;24.15;58.39
76762;BME280;65705;51.032;13.790;2023-07-29T07:16:46;99677.22;;;24.18;58.45
76762;BME280;65705;51.032;13.790;2023-07-29T07:19:12;99679.66;;;24.24;58.07
76762;BME280;65705;51.032;13.790;2023-07-29T07:21:37;99668.72;;;24.31;57.19
76762;BME280;65705;51.032;13.790;2023-07-29T07:24:03;99665.81;;;24.37;56.59
76762;BME280;65705;51.032;13.790;2023-07-29T07:26:29;99662.09;;;24.43;56.34
76762;BME280;65705;51.032;13.790;2023-07-29T07:28:55;99648.44;;;24.50;55.94
76762;BME280;65705;51.032;13.790;2023-07-29T07:31:21;99653.81;;;24.55;55.94
76762;BME280;65705;51.032;13.790;2023-07-29T07:33:47;99642.31;;;24.59;55.28
76762;BME280;65705;51.032;13.790;2023-07-29T07:36:13;99641.53;;;24.64;54.85
76762;BME280;65705;51.032;13.790;2023-07-29T07:38:38;99642.69;;;24.73;54.31
76762;BME280;65705;51.032;13.790;2023-07-29T07:41:04;99640.00;;;24.73;53.55
76762;BME280;65705;51.032;13.790;2023-07-29T07:43:30;99639.50;;;24.81;53.11
76762;BME280;65705;51.032;13.790;2023-07-29T07:46:00;99634.94;;;24.86;53.18
76762;BME280;65705;51.032;13.790;2023-07-29T07:48:29;99632.00;;;24.88;53.07
76762;BME280;65705;51.032;13.790;2023-07-29T07:50:55;99631.47;;;24.86;52.41
76762;BME280;65705;51.032;13.790;2023-07-29T07:53:20;99635.19;;;24.85;53.25
76762;BME280;65705;51.032;13.790;2023-07-29T07:55:46;99625.28;;;24.85;52.16
76762;BME280;65705;51.032;13.790;2023-07-29T07:58:12;99619.09;;;24.85;51.54
76762;BME280;65705;51.032;13.790;2023-07-29T08:00:38;99617.50;;;24.89;51.59
76762;BME280;65705;51.032;13.790;2023-07-29T08:03:04;99623.41;;;24.91;52.61
76762;BME280;65705;51.032;13.790;2023-07-29T08:05:30;99614.81;;;24.89;51.69
76762;BME280;65705;51.032;13.790;2023-07-29T08:07:56;99618.31;;;24.89;51.64
76762;BME280;65705;51.032;13.790;2023-07-29T08:10:22;99613.50;;;24.91;51.47
76762;BME280;65705;51.032;13.790;2023-07-29T08:12:48;99616.97;;;24.92;51.17
76762;BME280;65705;51.032;13.790;2023-07-29T08:15:14;99611.91;;;25.00;50.77
76762;BME280;65705;51.032;13.790;2023-07-29T08:17:39;99606.00;;;25.09;50.51
76762;BME280;65705;51.032;13.790;2023-07-29T08:20:05;99608.97;;;25.12;50.49
76762;BME280;65705;51.032;13.790;2023-07-29T08:22:32;99604.97;;;25.20;50.47
76762;BME280;65705;51.032;13.790;2023-07-29T08:24:57;99600.69;;;25.34;50.13
76762;BME280;65705;51.032;13.790;2023-07-29T08:27:23;99605.56;;;25.42;49.46
76762;BME280;65705;51.032;13.790;2023-07-29T08:29:49;99608.25;;;25.52;49.96
76762;BME280;65705;51.032;13.790;2023-07-29T08:32:15;99606.38;;;25.62;49.31
76762;BME280;65705;51.032;13.790;2023-07-29T08:34:41;99610.94;;;25.67;49.15
76762;BME280;65705;51.032;13.790;2023-07-29T08:37:06;99604.75;;;25.71;48.71
76762;BME280;65705;51.032;13.790;2023-07-29T08:39:32;99612.81;;;25.76;48.37
76762;BME280;65705;51.032;13.790;2023-07-29T08:42:03;99612.03;;;25.81;48.44
76762;BME280;65705;51.032;13.790;2023-07-29T08:44:40;99608.50;;;25.85;48.43
76762;BME280;65705;51.032;13.790;2023-07-29T08:47:06;99606.34;;;25.87;47.83
76762;BME280;65705;51.032;13.790;2023-07-29T08:49:32;99604.47;;;25.93;47.94
76762;BME280;65705;51.032;13.790;2023-07-29T08:51:59;99613.34;;;25.93;47.55
76762;BME280;65705;51.032;13.790;2023-07-29T08:54:25;99612.81;;;25.91;47.23
76762;BME280;65705;51.032;13.790;2023-07-29T08:56:51;99612.81;;;25.91;47.40
76762;BME280;65705;51.032;13.790;2023-07-29T08:59:17;99617.69;;;26.05;47.20
76762;BME280;65705;51.032;13.790;2023-07-29T09:01:44;99615.50;;;26.17;47.12
76762;BME280;65705;51.032;13.790;2023-07-29T09:04:10;99608.75;;;26.29;47.43
76762;BME280;65705;51.032;13.790;2023-07-29T09:06:36;99604.44;;;26.28;47.37
76762;BME280;65705;51.032;13.790;2023-07-29T09:09:04;99603.09;;;26.31;47.67
76762;BME280;65705;51.032;13.790;2023-07-29T09:11:30;99614.41;;;26.28;47.58
76762;BME280;65705;51.032;13.790;2023-07-29T09:13:56;99601.22;;;26.21;47.31
76762;BME280;65705;51.032;13.790;2023-07-29T09:16:22;99603.09;;;26.16;47.40
76762;BME280;65705;51.032;13.790;2023-07-29T09:18:49;99611.47;;;26.09;48.03
76762;BME280;65705;51.032;13.790;2023-07-29T09:21:23;99613.59;;;26.02;47.19
76762;BME280;65705;51.032;13.790;2023-07-29T09:23:50;99610.94;;;25.77;48.02
76762;BME280;65705;51.032;13.790;2023-07-29T09:26:26;99609.59;;;25.84;48.57
76762;BME280;65705;51.032;13.790;2023-07-29T09:28:57;99605.56;;;25.97;48.33
76762;BME280;65705;51.032;13.790;2023-07-29T09:31:24;99600.44;;;26.11;48.68
76762;BME280;65705;51.032;13.790;2023-07-29T09:33:55;99600.94;;;26.33;48.58
76762;BME280;65705;51.032;13.790;2023-07-29T09:36:22;99594.13;;;26.50;48.39
76762;BME280;65705;51.032;13.790;2023-07-29T09:38:52;99593.06;;;26.56;47.70
76762;BME280;65705;51.032;13.790;2023-07-29T09:41:18;99587.88;;;26.65;47.18
76762;BME280;65705;51.032;13.790;2023-07-29T09:43:44;99593.03;;;26.61;46.61
76762;BME280;65705;51.032;13.790;2023-07-29T09:46:09;99592.50;;;26.59;46.30
76762;BME280;65705;51.032;13.790;2023-07-29T09:48:36;99590.03;;;26.63;47.22
76762;BME280;65705;51.032;13.790;2023-07-29T09:51:12;99587.38;;;26.58;46.79
76762;BME280;65705;51.032;13.790;2023-07-29T09:53:46;99591.97;;;26.52;45.92
76762;BME280;65705;51.032;13.790;2023-07-29T09:56:13;99595.25;;;26.39;46.68
76762;BME280;65705;51.032;13.790;2023-07-29T09:58:45;99586.41;;;26.29;46.62
76762;BME280;65705;51.032;13.790;2023-07-29T10:01:13;99585.06;;;26.21;47.13
76762;BME280;65705;51.032;13.790;2023-07-29T10:03:40;99585.63;;;26.18;46.96
76762;BME280;65705;51.032;13.790;2023-07-29T10:06:06;99589.13;;;26.09;48.63
76762;BME280;65705;51.032;13.790;2023-07-29T10:08:33;99602.34;;;25.90;50.63
76762;BME280;65705;51.032;13.790;2023-07-29T10:11:07;99613.38;;;25.68;52.70
76762;BME280;65705;51.032;13.790;2023-07-29T10:13:34;99620.34;;;25.44;53.86
76762;BME280;65705;51.032;13.790;2023-07-29T10:16:00;99608.19;;;25.22;56.57
76762;BME280;65705;51.032;13.790;2023-07-29T10:18:30;99619.16;;;25.05;59.61
76762;BME280;65705;51.032;13.790;2023-07-29T10:20:58;99609.22;;;25.00;59.94
76762;BME280;65705;51.032;13.790;2023-07-29T10:23:25;99604.63;;;25.06;60.06
76762;BME280;65705;51.032;13.790;2023-07-29T10:26:05;99588.56;;;25.21;60.62
76762;BME280;65705;51.032;13.790;2023-07-29T10:28:32;99588.09;;;25.39;61.29
76762;BME280;65705;51.032;13.790;2023-07-29T10:30:59;99583.78;;;25.53;60.18
76762;BME280;65705;51.032;13.790;2023-07-29T10:33:25;99578.66;;;25.62;59.56
76762;BME280;65705;51.032;13.790;2023-07-29T10:35:52;99587.28;;;25.74;58.41
76762;BME280;65705;51.032;13.790;2023-07-29T10:38:21;99583.50;;;25.85;58.15
76762;BME280;65705;51.032;13.790;2023-07-29T10:40:52;99578.13;;;25.95;57.46
76762;BME280;65705;51.032;13.790;2023-07-29T10:43:33;99582.94;;;26.03;56.41
76762;BME280;65705;51.032;13.790;2023-07-29T10:46:20;99585.38;;;26.10;56.20
76762;BME280;65705;51.032;13.790;2023-07-29T10:56:28;99576.25;;;26.06;57.54
76762;BME280;65705;51.032;13.790;2023-07-29T10:59:02;99580.25;;;25.98;56.64
76762;BME280;65705;51.032;13.790;2023-07-29T11:01:57;99575.44;;;25.95;56.67
76762;BME280;65705;51.032;13.790;2023-07-29T11:04:28;99576.25;;;25.85;58.11
76762;BME280;65705;51.032;13.790;2023-07-29T11:15:12;99560.06;;;26.11;57.40
76762;BME280;65705;51.032;13.790;2023-07-29T11:17:58;99563.25;;;26.23;56.84
76762;BME280;65705;51.032;13.790;2023-07-29T11:20:31;99558.94;;;26.37;56.24
76762;BME280;65705;51.032;13.790;2023-07-29T11:22:59;99561.59;;;26.42;54.87
76762;BME280;65705;51.032;13.790;2023-07-29T11:25:27;99559.19;;;26.40;54.78
76762;BME280;65705;51.032;13.790;2023-07-29T11:27:55;99554.09;;;26.29;55.66
76762;BME280;65705;51.032;13.790;2023-07-29T11:30:21;99559.53;;;26.19;54.95
76762;BME280;65705;51.032;13.790;2023-07-29T11:32:47;99554.16;;;26.09;55.16
76762;BME280;65705;51.032;13.790;2023-07-29T11:35:16;99558.22;;;26.06;55.22
76762;BME280;65705;51.032;13.790;2023-07-29T11:37:44;99566.56;;;26.05;54.23
76762;BME280;65705;51.032;13.790;2023-07-29T11:40:14;99559.00;;;26.01;54.32
76762;BME280;65705;51.032;13.790;2023-07-29T11:42:40;99560.63;;;26.02;54.24
76762;BME280;65705;51.032;13.790;2023-07-29T11:45:07;99561.41;;;26.03;54.25
76762;BME280;65705;51.032;13.790;2023-07-29T11:47:33;99562.22;;;26.09;53.83
76762;BME280;65705;51.032;13.790;2023-07-29T11:50:04;99555.00;;;26.04;54.40
76762;BME280;65705;51.032;13.790;2023-07-29T11:52:35;99553.13;;;26.05;54.46
76762;BME280;65705;51.032;13.790;2023-07-29T11:55:03;99550.44;;;26.05;53.99
76762;BME280;65705;51.032;13.790;2023-07-29T11:57:30;99552.56;;;26.02;54.49
76762;BME280;65705;51.032;13.790;2023-07-29T11:59:56;99545.00;;;25.99;54.58
76762;BME280;65705;51.032;13.790;2023-07-29T12:02:23;99546.38;;;25.97;54.39
76762;BME280;65705;51.032;13.790;2023-07-29T12:04:50;99540.47;;;25.95;54.98
76762;BME280;65705;51.032;13.790;2023-07-29T12:07:17;99552.84;;;25.91;55.32
76762;BME280;65705;51.032;13.790;2023-07-29T12:09:43;99542.88;;;25.91;55.38
76762;BME280;65705;51.032;13.790;2023-07-29T12:12:09;99541.78;;;25.97;55.50
76762;BME280;65705;51.032;13.790;2023-07-29T12:14:35;99536.94;;;25.99;54.86
76762;BME280;65705;51.032;13.790;2023-07-29T12:17:02;99534.28;;;26.10;54.49
76762;BME280;65705;51.032;13.790;2023-07-29T12:19:36;99533.16;;;26.16;54.52
76762;BME280;65705;51.032;13.790;2023-07-29T12:22:03;99527.50;;;26.22;54.22
76762;BME280;65705;51.032;13.790;2023-07-29T12:24:30;99530.97;;;26.23;53.61
76762;BME280;65705;51.032;13.790;2023-07-29T12:26:56;99530.94;;;26.38;53.26
76762;BME280;65705;51.032;13.790;2023-07-29T12:29:22;99534.13;;;26.45;53.54
76762;BME280;65705;51.032;13.790;2023-07-29T12:31:49;99524.97;;;26.51;54.02
76762;BME280;65705;51.032;13.790;2023-07-29T12:34:21;99516.56;;;26.57;53.25
76762;BME280;65705;51.032;13.790;2023-07-29T12:36:51;99511.44;;;26.61;51.95
76762;BME280;65705;51.032;13.790;2023-07-29T12:41:47;99521.91;;;26.62;47.44
76762;BME280;65705;51.032;13.790;2023-07-29T12:44:13;99513.06;;;26.62;47.03
76762;BME280;65705;51.032;13.790;2023-07-29T12:46:39;99515.19;;;26.65;47.39
76762;BME280;65705;51.032;13.790;2023-07-29T12:49:05;99518.41;;;26.72;47.64
76762;BME280;65705;51.032;13.790;2023-07-29T12:51:31;99508.97;;;26.74;47.53
76762;BME280;65705;51.032;13.790;2023-07-29T12:53:57;99506.78;;;26.81;46.84
76762;BME280;65705;51.032;13.790;2023-07-29T12:56:23;99503.75;;;26.88;47.17
76762;BME280;65705;51.032;13.790;2023-07-29T12:58:48;99505.63;;;26.92;47.33
76762;BME280;65705;51.032;13.790;2023-07-29T13:01:15;99502.03;;;27.02;47.65
76762;BME280;65705;51.032;13.790;2023-07-29T13:03:44;99497.94;;;27.10;47.45
76762;BME280;65705;51.032;13.790;2023-07-29T13:06:09;99490.09;;;27.13;47.72
76762;BME280;65705;51.032;13.790;2023-07-29T13:08:35;99489.50;;;27.21;48.12
76762;BME280;65705;51.032;13.790;2023-07-29T13:11:02;99480.56;;;27.26;47.83
76762;BME280;65705;51.032;13.790;2023-07-29T13:13:27;99483.03;;;27.22;47.84
76762;BME280;65705;51.032;13.790;2023-07-29T13:15:53;99488.41;;;27.22;48.14